Airport View

Enter AWOS ICAO identifier for current METAR.

ex. KFNL

KBKE 212353Z AUTO 09006KT 10SM CLR 22/07 A3006 RMK AO2 SLP172 T02170067 10228 20167 56016

22 Sep 2019 00:03

Frequency: 134.275

Phone: 541-523-5412

Other Area AWOS: KLGD - KMEH - KGCD - KONO

TAF KBKE 212320Z 2200/2224 VRB06KT P6SM SCT120 FM220900 VRB03KT P6SM VCFG FEW120 FM221500 13006KT P6SM BKN100 FM222200 29007KT P6SM VCSH SCT040 BKN070